sensor_id;sensor_type;location;lat;lon;timestamp;temperature;humidity
74384;DHT22;62824;52.994;-3.936;2023-04-24T00:01:26;7.90;99.90
74384;DHT22;62824;52.994;-3.936;2023-04-24T00:03:52;7.80;99.90
74384;DHT22;62824;52.994;-3.936;2023-04-24T00:06:18;7.80;99.90
74384;DHT22;62824;52.994;-3.936;2023-04-24T00:08:43;7.80;99.90
74384;DHT22;62824;52.994;-3.936;2023-04-24T00:11:09;7.90;99.90
74384;DHT22;62824;52.994;-3.936;2023-04-24T00:13:35;7.80;99.90
74384;DHT22;62824;52.994;-3.936;2023-04-24T00:16:01;7.80;99.90
74384;DHT22;62824;52.994;-3.936;2023-04-24T00:18:26;7.70;99.90
74384;DHT22;62824;52.994;-3.936;2023-04-24T00:20:52;7.60;99.90
74384;DHT22;62824;52.994;-3.936;2023-04-24T00:23:18;7.50;99.90
74384;DHT22;62824;52.994;-3.936;2023-04-24T00:25:44;7.50;99.90
74384;DHT22;62824;52.994;-3.936;2023-04-24T00:28:10;7.40;99.90
74384;DHT22;62824;52.994;-3.936;2023-04-24T00:30:35;7.50;99.90
74384;DHT22;62824;52.994;-3.936;2023-04-24T00:33:01;7.60;99.90
74384;DHT22;62824;52.994;-3.936;2023-04-24T00:35:27;7.60;99.90
74384;DHT22;62824;52.994;-3.936;2023-04-24T00:37:53;7.50;99.90
74384;DHT22;62824;52.994;-3.936;2023-04-24T00:40:18;7.40;99.90
74384;DHT22;62824;52.994;-3.936;2023-04-24T00:42:44;7.30;99.90
74384;DHT22;62824;52.994;-3.936;2023-04-24T00:45:11;7.30;99.90
74384;DHT22;62824;52.994;-3.936;2023-04-24T00:47:37;7.20;99.90
74384;DHT22;62824;52.994;-3.936;2023-04-24T00:50:05;7.30;99.90
74384;DHT22;62824;52.994;-3.936;2023-04-24T00:52:31;7.30;99.90
74384;DHT22;62824;52.994;-3.936;2023-04-24T00:54:58;7.40;99.90
74384;DHT22;62824;52.994;-3.936;2023-04-24T00:57:24;7.50;99.90
74384;DHT22;62824;52.994;-3.936;2023-04-24T00:59:51;7.50;99.90
74384;DHT22;62824;52.994;-3.936;2023-04-24T01:02:19;7.60;99.90
74384;DHT22;62824;52.994;-3.936;2023-04-24T01:04:45;7.60;99.90
74384;DHT22;62824;52.994;-3.936;2023-04-24T01:07:11;7.60;99.90
74384;DHT22;62824;52.994;-3.936;2023-04-24T01:09:40;7.70;99.90
74384;DHT22;62824;52.994;-3.936;2023-04-24T01:12:09;7.90;99.90
74384;DHT22;62824;52.994;-3.936;2023-04-24T01:14:35;8.00;99.90
74384;DHT22;62824;52.994;-3.936;2023-04-24T01:17:00;8.10;99.90
74384;DHT22;62824;52.994;-3.936;2023-04-24T01:19:27;8.20;99.90
74384;DHT22;62824;52.994;-3.936;2023-04-24T01:21:53;8.20;99.90
74384;DHT22;62824;52.994;-3.936;2023-04-24T01:24:22;8.30;99.90
74384;DHT22;62824;52.994;-3.936;2023-04-24T01:26:48;8.30;99.90
74384;DHT22;62824;52.994;-3.936;2023-04-24T01:29:13;8.30;99.90
74384;DHT22;62824;52.994;-3.936;2023-04-24T01:31:39;8.30;99.90
74384;DHT22;62824;52.994;-3.936;2023-04-24T01:34:06;8.40;99.90
74384;DHT22;62824;52.994;-3.936;2023-04-24T01:36:32;8.40;99.90
74384;DHT22;62824;52.994;-3.936;2023-04-24T01:38:58;8.30;99.90
74384;DHT22;62824;52.994;-3.936;2023-04-24T01:41:25;8.30;99.90
74384;DHT22;62824;52.994;-3.936;2023-04-24T01:43:50;8.30;99.90
74384;DHT22;62824;52.994;-3.936;2023-04-24T01:46:16;8.30;99.90
74384;DHT22;62824;52.994;-3.936;2023-04-24T01:48:42;8.40;99.90
74384;DHT22;62824;52.994;-3.936;2023-04-24T01:51:08;8.40;99.90
74384;DHT22;62824;52.994;-3.936;2023-04-24T01:53:34;8.50;99.90
74384;DHT22;62824;52.994;-3.936;2023-04-24T01:55:59;8.50;99.90
74384;DHT22;62824;52.994;-3.936;2023-04-24T01:58:27;8.50;99.90
74384;DHT22;62824;52.994;-3.936;2023-04-24T02:00:52;8.50;99.90
74384;DHT22;62824;52.994;-3.936;2023-04-24T02:03:18;8.30;99.90
74384;DHT22;62824;52.994;-3.936;2023-04-24T02:05:44;8.20;99.90
74384;DHT22;62824;52.994;-3.936;2023-04-24T02:08:10;8.10;99.90
74384;DHT22;62824;52.994;-3.936;2023-04-24T02:10:36;8.10;99.90
74384;DHT22;62824;52.994;-3.936;2023-04-24T02:13:02;8.00;99.90
74384;DHT22;62824;52.994;-3.936;2023-04-24T02:15:28;8.00;99.90
74384;DHT22;62824;52.994;-3.936;2023-04-24T02:17:53;8.00;99.90
74384;DHT22;62824;52.994;-3.936;2023-04-24T02:20:19;8.10;99.90
74384;DHT22;62824;52.994;-3.936;2023-04-24T02:22:45;8.20;99.90
74384;DHT22;62824;52.994;-3.936;2023-04-24T02:25:11;8.30;99.90
74384;DHT22;62824;52.994;-3.936;2023-04-24T02:27:36;8.30;99.90
74384;DHT22;62824;52.994;-3.936;2023-04-24T02:30:02;8.20;99.90
74384;DHT22;62824;52.994;-3.936;2023-04-24T02:32:28;8.20;99.90
74384;DHT22;62824;52.994;-3.936;2023-04-24T02:34:54;8.20;99.90
74384;DHT22;62824;52.994;-3.936;2023-04-24T02:37:19;8.30;99.90
74384;DHT22;62824;52.994;-3.936;2023-04-24T02:39:45;8.40;99.90
74384;DHT22;62824;52.994;-3.936;2023-04-24T02:42:11;8.40;99.90
74384;DHT22;62824;52.994;-3.936;2023-04-24T02:44:37;8.30;99.90
74384;DHT22;62824;52.994;-3.936;2023-04-24T02:47:02;8.30;99.90
74384;DHT22;62824;52.994;-3.936;2023-04-24T02:49:29;8.20;99.90
74384;DHT22;62824;52.994;-3.936;2023-04-24T02:51:54;8.20;99.90
74384;DHT22;62824;52.994;-3.936;2023-04-24T02:54:20;8.10;99.90
74384;DHT22;62824;52.994;-3.936;2023-04-24T02:56:46;8.20;99.90
74384;DHT22;62824;52.994;-3.936;2023-04-24T02:59:11;8.20;99.90
74384;DHT22;62824;52.994;-3.936;2023-04-24T03:01:37;8.30;99.90
74384;DHT22;62824;52.994;-3.936;2023-04-24T03:04:03;8.30;99.90
74384;DHT22;62824;52.994;-3.936;2023-04-24T03:06:29;8.30;99.90
74384;DHT22;62824;52.994;-3.936;2023-04-24T03:08:56;8.30;99.90
74384;DHT22;62824;52.994;-3.936;2023-04-24T03:11:22;8.30;99.90
74384;DHT22;62824;52.994;-3.936;2023-04-24T03:13:48;8.30;99.90
74384;DHT22;62824;52.994;-3.936;2023-04-24T03:16:14;8.20;99.90
74384;DHT22;62824;52.994;-3.936;2023-04-24T03:18:40;8.30;99.90
74384;DHT22;62824;52.994;-3.936;2023-04-24T03:21:05;8.20;99.90
74384;DHT22;62824;52.994;-3.936;2023-04-24T03:23:31;8.30;99.90
74384;DHT22;62824;52.994;-3.936;2023-04-24T03:25:57;8.10;99.90
74384;DHT22;62824;52.994;-3.936;2023-04-24T03:28:22;8.20;99.90
74384;DHT22;62824;52.994;-3.936;2023-04-24T03:30:48;8.20;99.90
74384;DHT22;62824;52.994;-3.936;2023-04-24T03:33:14;8.20;99.90
74384;DHT22;62824;52.994;-3.936;2023-04-24T03:35:40;8.10;99.90
74384;DHT22;62824;52.994;-3.936;2023-04-24T03:38:06;8.10;99.90
74384;DHT22;62824;52.994;-3.936;2023-04-24T03:40:32;8.10;99.90
74384;DHT22;62824;52.994;-3.936;2023-04-24T03:42:59;8.00;99.90
74384;DHT22;62824;52.994;-3.936;2023-04-24T03:45:24;8.00;99.90
74384;DHT22;62824;52.994;-3.936;2023-04-24T03:47:50;7.90;99.90
74384;DHT22;62824;52.994;-3.936;2023-04-24T03:50:16;8.00;99.90
74384;DHT22;62824;52.994;-3.936;2023-04-24T03:52:42;8.10;99.90
74384;DHT22;62824;52.994;-3.936;2023-04-24T03:55:08;8.10;99.90
74384;DHT22;62824;52.994;-3.936;2023-04-24T03:57:33;8.00;99.90
74384;DHT22;62824;52.994;-3.936;2023-04-24T03:59:59;8.00;99.90
74384;DHT22;62824;52.994;-3.936;2023-04-24T04:02:25;7.90;99.90
74384;DHT22;62824;52.994;-3.936;2023-04-24T04:04:51;8.00;99.90
74384;DHT22;62824;52.994;-3.936;2023-04-24T04:07:16;8.00;99.90
74384;DHT22;62824;52.994;-3.936;2023-04-24T04:09:42;8.00;99.90
74384;DHT22;62824;52.994;-3.936;2023-04-24T04:12:08;8.00;99.90
74384;DHT22;62824;52.994;-3.936;2023-04-24T04:14:34;8.00;99.90
74384;DHT22;62824;52.994;-3.936;2023-04-24T04:17:00;7.90;99.90
74384;DHT22;62824;52.994;-3.936;2023-04-24T04:19:25;7.70;99.90
74384;DHT22;62824;52.994;-3.936;2023-04-24T04:21:51;7.70;99.90
74384;DHT22;62824;52.994;-3.936;2023-04-24T04:24:19;7.60;99.90
74384;DHT22;62824;52.994;-3.936;2023-04-24T04:26:46;7.60;99.90
74384;DHT22;62824;52.994;-3.936;2023-04-24T04:29:13;7.40;99.90
74384;DHT22;62824;52.994;-3.936;2023-04-24T04:31:39;7.30;99.90
74384;DHT22;62824;52.994;-3.936;2023-04-24T04:34:05;7.10;99.90
74384;DHT22;62824;52.994;-3.936;2023-04-24T04:36:31;7.10;99.90
74384;DHT22;62824;52.994;-3.936;2023-04-24T04:38:57;7.00;99.90
74384;DHT22;62824;52.994;-3.936;2023-04-24T04:41:24;7.00;99.90
74384;DHT22;62824;52.994;-3.936;2023-04-24T04:43:50;6.90;99.90
74384;DHT22;62824;52.994;-3.936;2023-04-24T04:46:16;6.90;99.90
74384;DHT22;62824;52.994;-3.936;2023-04-24T04:48:42;6.90;99.90
74384;DHT22;62824;52.994;-3.936;2023-04-24T04:51:08;7.00;99.90
74384;DHT22;62824;52.994;-3.936;2023-04-24T04:53:34;7.00;99.90
74384;DHT22;62824;52.994;-3.936;2023-04-24T04:56:00;7.20;99.90
74384;DHT22;62824;52.994;-3.936;2023-04-24T04:58:26;7.20;99.90
74384;DHT22;62824;52.994;-3.936;2023-04-24T05:00:52;7.30;99.90
74384;DHT22;62824;52.994;-3.936;2023-04-24T05:03:17;7.20;99.90
74384;DHT22;62824;52.994;-3.936;2023-04-24T05:05:43;7.10;99.90
74384;DHT22;62824;52.994;-3.936;2023-04-24T05:08:09;7.00;99.90
74384;DHT22;62824;52.994;-3.936;2023-04-24T05:10:35;7.00;99.90
74384;DHT22;62824;52.994;-3.936;2023-04-24T05:13:03;6.90;99.90
74384;DHT22;62824;52.994;-3.936;2023-04-24T05:15:29;7.00;99.90
74384;DHT22;62824;52.994;-3.936;2023-04-24T05:17:55;6.90;99.90
74384;DHT22;62824;52.994;-3.936;2023-04-24T05:20:21;6.80;99.90
74384;DHT22;62824;52.994;-3.936;2023-04-24T05:22:47;6.80;99.90
74384;DHT22;62824;52.994;-3.936;2023-04-24T05:25:13;6.70;99.90
74384;DHT22;62824;52.994;-3.936;2023-04-24T05:27:39;6.60;99.90
74384;DHT22;62824;52.994;-3.936;2023-04-24T05:30:05;6.60;99.90
74384;DHT22;62824;52.994;-3.936;2023-04-24T05:32:31;6.70;99.90
74384;DHT22;62824;52.994;-3.936;2023-04-24T05:34:57;6.60;99.90
74384;DHT22;62824;52.994;-3.936;2023-04-24T05:37:23;6.50;99.90
74384;DHT22;62824;52.994;-3.936;2023-04-24T05:39:48;6.40;99.90
74384;DHT22;62824;52.994;-3.936;2023-04-24T05:42:14;6.30;99.90
74384;DHT22;62824;52.994;-3.936;2023-04-24T05:44:40;6.40;99.90
74384;DHT22;62824;52.994;-3.936;2023-04-24T05:47:06;6.50;99.90
74384;DHT22;62824;52.994;-3.936;2023-04-24T05:49:32;6.30;99.90
74384;DHT22;62824;52.994;-3.936;2023-04-24T05:51:57;6.10;99.90
74384;DHT22;62824;52.994;-3.936;2023-04-24T05:54:23;6.00;99.90
74384;DHT22;62824;52.994;-3.936;2023-04-24T05:56:49;6.00;99.90
74384;DHT22;62824;52.994;-3.936;2023-04-24T05:59:15;6.20;99.90
74384;DHT22;62824;52.994;-3.936;2023-04-24T06:01:41;6.20;99.90
74384;DHT22;62824;52.994;-3.936;2023-04-24T06:04:07;6.10;99.90
74384;DHT22;62824;52.994;-3.936;2023-04-24T06:06:33;6.10;99.90
74384;DHT22;62824;52.994;-3.936;2023-04-24T06:09:00;6.20;99.90
74384;DHT22;62824;52.994;-3.936;2023-04-24T06:11:27;6.30;99.90
74384;DHT22;62824;52.994;-3.936;2023-04-24T06:13:53;6.40;99.90
74384;DHT22;62824;52.994;-3.936;2023-04-24T06:16:19;6.50;99.90
74384;DHT22;62824;52.994;-3.936;2023-04-24T06:18:45;6.50;99.90
74384;DHT22;62824;52.994;-3.936;2023-04-24T06:21:12;6.40;99.90
74384;DHT22;62824;52.994;-3.936;2023-04-24T06:23:38;6.20;99.90
74384;DHT22;62824;52.994;-3.936;2023-04-24T06:26:04;6.30;99.90
74384;DHT22;62824;52.994;-3.936;2023-04-24T06:28:30;6.40;99.90
74384;DHT22;62824;52.994;-3.936;2023-04-24T06:30:55;6.40;99.90
74384;DHT22;62824;52.994;-3.936;2023-04-24T06:33:21;6.30;99.90
74384;DHT22;62824;52.994;-3.936;2023-04-24T06:35:47;6.30;99.90
74384;DHT22;62824;52.994;-3.936;2023-04-24T06:38:13;6.30;99.90
74384;DHT22;62824;52.994;-3.936;2023-04-24T06:40:39;6.20;99.90
74384;DHT22;62824;52.994;-3.936;2023-04-24T06:43:04;6.10;99.90
74384;DHT22;62824;52.994;-3.936;2023-04-24T06:45:31;6.00;99.90
74384;DHT22;62824;52.994;-3.936;2023-04-24T06:47:57;5.90;99.90
74384;DHT22;62824;52.994;-3.936;2023-04-24T06:50:23;5.80;99.90
74384;DHT22;62824;52.994;-3.936;2023-04-24T06:52:49;5.80;99.90
74384;DHT22;62824;52.994;-3.936;2023-04-24T06:55:15;5.80;99.90
74384;DHT22;62824;52.994;-3.936;2023-04-24T06:57:43;5.90;99.90
74384;DHT22;62824;52.994;-3.936;2023-04-24T07:00:10;6.00;99.90
74384;DHT22;62824;52.994;-3.936;2023-04-24T07:02:36;6.10;99.90
74384;DHT22;62824;52.994;-3.936;2023-04-24T07:05:03;6.10;99.90
74384;DHT22;62824;52.994;-3.936;2023-04-24T07:07:29;6.10;99.90
74384;DHT22;62824;52.994;-3.936;2023-04-24T07:09:57;6.10;99.90
74384;DHT22;62824;52.994;-3.936;2023-04-24T07:12:23;6.10;99.90
74384;DHT22;62824;52.994;-3.936;2023-04-24T07:14:49;6.20;99.90
74384;DHT22;62824;52.994;-3.936;2023-04-24T07:17:16;6.10;99.90
74384;DHT22;62824;52.994;-3.936;2023-04-24T07:19:41;6.20;99.90
74384;DHT22;62824;52.994;-3.936;2023-04-24T07:22:07;6.20;99.90
74384;DHT22;62824;52.994;-3.936;2023-04-24T07:24:33;6.10;99.90
74384;DHT22;62824;52.994;-3.936;2023-04-24T07:26:59;6.00;99.90
74384;DHT22;62824;52.994;-3.936;2023-04-24T07:29:27;6.10;99.90
74384;DHT22;62824;52.994;-3.936;2023-04-24T07:31:52;6.20;99.90
74384;DHT22;62824;52.994;-3.936;2023-04-24T07:34:19;6.30;99.90
74384;DHT22;62824;52.994;-3.936;2023-04-24T07:36:45;6.40;99.90
74384;DHT22;62824;52.994;-3.936;2023-04-24T07:39:11;6.30;99.90
74384;DHT22;62824;52.994;-3.936;2023-04-24T07:41:37;6.40;99.90
74384;DHT22;62824;52.994;-3.936;2023-04-24T07:44:03;6.40;99.90
74384;DHT22;62824;52.994;-3.936;2023-04-24T07:46:30;6.40;99.90
74384;DHT22;62824;52.994;-3.936;2023-04-24T07:48:56;6.50;99.90
74384;DHT22;62824;52.994;-3.936;2023-04-24T07:51:21;6.60;99.90
74384;DHT22;62824;52.994;-3.936;2023-04-24T07:53:47;6.70;99.90
74384;DHT22;62824;52.994;-3.936;2023-04-24T07:56:13;6.80;99.90
74384;DHT22;62824;52.994;-3.936;2023-04-24T07:58:39;6.70;99.90
74384;DHT22;62824;52.994;-3.936;2023-04-24T08:01:05;6.70;99.90
74384;DHT22;62824;52.994;-3.936;2023-04-24T08:03:31;6.80;99.90
74384;DHT22;62824;52.994;-3.936;2023-04-24T08:05:56;6.80;99.90
74384;DHT22;62824;52.994;-3.936;2023-04-24T08:08:23;6.60;99.90
74384;DHT22;62824;52.994;-3.936;2023-04-24T08:10:49;6.50;99.90
74384;DHT22;62824;52.994;-3.936;2023-04-24T08:13:15;6.60;99.90
74384;DHT22;62824;52.994;-3.936;2023-04-24T08:15:41;6.70;99.90
74384;DHT22;62824;52.994;-3.936;2023-04-24T08:18:07;6.80;99.90
74384;DHT22;62824;52.994;-3.936;2023-04-24T08:20:34;6.80;99.90
74384;DHT22;62824;52.994;-3.936;2023-04-24T08:23:00;7.00;99.90
74384;DHT22;62824;52.994;-3.936;2023-04-24T08:25:25;7.00;99.90
74384;DHT22;62824;52.994;-3.936;2023-04-24T08:27:51;7.10;99.90
74384;DHT22;62824;52.994;-3.936;2023-04-24T08:30:17;7.10;99.90
74384;DHT22;62824;52.994;-3.936;2023-04-24T08:32:43;7.20;99.90
74384;DHT22;62824;52.994;-3.936;2023-04-24T08:35:09;7.30;99.90
74384;DHT22;62824;52.994;-3.936;2023-04-24T08:37:36;7.30;99.90
74384;DHT22;62824;52.994;-3.936;2023-04-24T08:40:15;7.50;99.90
74384;DHT22;62824;52.994;-3.936;2023-04-24T08:42:44;7.60;99.90
74384;DHT22;62824;52.994;-3.936;2023-04-24T08:45:12;7.60;99.90
74384;DHT22;62824;52.994;-3.936;2023-04-24T08:47:39;7.50;99.90
74384;DHT22;62824;52.994;-3.936;2023-04-24T08:50:06;7.40;99.90
74384;DHT22;62824;52.994;-3.936;2023-04-24T08:52:33;7.40;99.90
74384;DHT22;62824;52.994;-3.936;2023-04-24T08:55:00;7.40;99.90
74384;DHT22;62824;52.994;-3.936;2023-04-24T08:57:27;7.40;99.90
74384;DHT22;62824;52.994;-3.936;2023-04-24T08:59:53;7.40;99.90
74384;DHT22;62824;52.994;-3.936;2023-04-24T09:02:21;7.50;99.90
74384;DHT22;62824;52.994;-3.936;2023-04-24T09:04:47;7.60;99.90
74384;DHT22;62824;52.994;-3.936;2023-04-24T09:07:16;7.60;99.90
74384;DHT22;62824;52.994;-3.936;2023-04-24T09:09:42;7.50;99.90
74384;DHT22;62824;52.994;-3.936;2023-04-24T09:12:09;7.50;99.90
74384;DHT22;62824;52.994;-3.936;2023-04-24T09:14:36;7.70;99.90
74384;DHT22;62824;52.994;-3.936;2023-04-24T09:17:06;7.80;99.90
74384;DHT22;62824;52.994;-3.936;2023-04-24T09:19:32;8.10;99.90
74384;DHT22;62824;52.994;-3.936;2023-04-24T09:21:57;8.20;99.90
74384;DHT22;62824;52.994;-3.936;2023-04-24T09:24:23;8.20;99.90
74384;DHT22;62824;52.994;-3.936;2023-04-24T09:26:56;8.40;99.90
74384;DHT22;62824;52.994;-3.936;2023-04-24T09:29:24;8.60;99.90
74384;DHT22;62824;52.994;-3.936;2023-04-24T09:31:50;8.80;99.90
74384;DHT22;62824;52.994;-3.936;2023-04-24T09:34:22;8.70;99.90
74384;DHT22;62824;52.994;-3.936;2023-04-24T09:36:48;8.60;99.90
74384;DHT22;62824;52.994;-3.936;2023-04-24T09:39:15;8.50;99.90
74384;DHT22;62824;52.994;-3.936;2023-04-24T09:41:53;8.30;99.90
74384;DHT22;62824;52.994;-3.936;2023-04-24T09:44:25;8.30;99.90
74384;DHT22;62824;52.994;-3.936;2023-04-24T09:46:59;8.50;99.90
74384;DHT22;62824;52.994;-3.936;2023-04-24T09:49:30;8.90;99.90
74384;DHT22;62824;52.994;-3.936;2023-04-24T09:52:07;8.80;99.90
74384;DHT22;62824;52.994;-3.936;2023-04-24T09:54:33;8.80;99.90
74384;DHT22;62824;52.994;-3.936;2023-04-24T09:56:59;8.90;99.90
74384;DHT22;62824;52.994;-3.936;2023-04-24T09:59:28;8.90;99.90
74384;DHT22;62824;52.994;-3.936;2023-04-24T10:01:53;8.80;99.90
74384;DHT22;62824;52.994;-3.936;2023-04-24T10:06:47;8.80;99.90
74384;DHT22;62824;52.994;-3.936;2023-04-24T10:09:18;8.60;99.90
74384;DHT22;62824;52.994;-3.936;2023-04-24T10:11:45;8.60;99.90
74384;DHT22;62824;52.994;-3.936;2023-04-24T10:14:16;8.70;99.90
74384;DHT22;62824;52.994;-3.936;2023-04-24T10:16:44;8.70;99.90
74384;DHT22;62824;52.994;-3.936;2023-04-24T10:19:10;8.70;99.90
74384;DHT22;62824;52.994;-3.936;2023-04-24T10:21:40;8.70;99.90
74384;DHT22;62824;52.994;-3.936;2023-04-24T10:24:08;8.90;99.90
74384;DHT22;62824;52.994;-3.936;2023-04-24T10:26:37;9.00;99.90
74384;DHT22;62824;52.994;-3.936;2023-04-24T10:29:05;9.20;99.90
74384;DHT22;62824;52.994;-3.936;2023-04-24T10:31:36;9.60;99.90
74384;DHT22;62824;52.994;-3.936;2023-04-24T10:34:02;9.60;99.90
74384;DHT22;62824;52.994;-3.936;2023-04-24T10:36:30;9.80;99.90
74384;DHT22;62824;52.994;-3.936;2023-04-24T10:38:59;9.60;99.90
74384;DHT22;62824;52.994;-3.936;2023-04-24T10:41:27;9.20;99.90
74384;DHT22;62824;52.994;-3.936;2023-04-24T10:46:36;9.20;99.90
74384;DHT22;62824;52.994;-3.936;2023-04-24T10:49:06;9.00;99.90
74384;DHT22;62824;52.994;-3.936;2023-04-24T10:51:50;9.20;99.90
74384;DHT22;62824;52.994;-3.936;2023-04-24T10:54:29;9.40;99.90
74384;DHT22;62824;52.994;-3.936;2023-04-24T10:59:48;9.20;99.90
74384;DHT22;62824;52.994;-3.936;2023-04-24T11:02:14;9.20;99.90
74384;DHT22;62824;52.994;-3.936;2023-04-24T11:04:41;9.10;99.90
74384;DHT22;62824;52.994;-3.936;2023-04-24T11:07:16;9.10;99.90
74384;DHT22;62824;52.994;-3.936;2023-04-24T11:09:42;9.30;99.90
74384;DHT22;62824;52.994;-3.936;2023-04-24T11:12:10;9.40;97.20
74384;DHT22;62824;52.994;-3.936;2023-04-24T11:17:38;9.60;93.00
74384;DHT22;62824;52.994;-3.936;2023-04-24T11:20:10;9.70;85.10
74384;DHT22;62824;52.994;-3.936;2023-04-24T11:22:38;9.70;80.70
74384;DHT22;62824;52.994;-3.936;2023-04-24T11:25:06;9.70;81.20
74384;DHT22;62824;52.994;-3.936;2023-04-24T11:27:40;9.70;78.70
74384;DHT22;62824;52.994;-3.936;2023-04-24T11:30:08;9.80;73.30
74384;DHT22;62824;52.994;-3.936;2023-04-24T11:37:40;9.90;73.70
74384;DHT22;62824;52.994;-3.936;2023-04-24T11:40:11;10.20;66.00
74384;DHT22;62824;52.994;-3.936;2023-04-24T11:42:44;10.40;61.80
74384;DHT22;62824;52.994;-3.936;2023-04-24T11:45:12;10.50;53.80
74384;DHT22;62824;52.994;-3.936;2023-04-24T11:47:38;10.90;47.30
74384;DHT22;62824;52.994;-3.936;2023-04-24T11:50:09;11.50;44.90
74384;DHT22;62824;52.994;-3.936;2023-04-24T11:52:45;11.60;43.10
74384;DHT22;62824;52.994;-3.936;2023-04-24T11:57:43;10.80;47.10
74384;DHT22;62824;52.994;-3.936;2023-04-24T12:00:16;10.90;46.50
74384;DHT22;62824;52.994;-3.936;2023-04-24T12:02:44;10.80;49.40
74384;DHT22;62824;52.994;-3.936;2023-04-24T12:05:23;10.80;50.70
74384;DHT22;62824;52.994;-3.936;2023-04-24T12:07:49;10.90;52.00
74384;DHT22;62824;52.994;-3.936;2023-04-24T12:10:20;11.30;48.10
74384;DHT22;62824;52.994;-3.936;2023-04-24T12:12:46;11.40;38.50
74384;DHT22;62824;52.994;-3.936;2023-04-24T12:15:12;11.90;39.30
74384;DHT22;62824;52.994;-3.936;2023-04-24T12:17:41;12.00;37.70
74384;DHT22;62824;52.994;-3.936;2023-04-24T12:20:08;11.80;37.90
74384;DHT22;62824;52.994;-3.936;2023-04-24T12:25:19;11.00;45.10
74384;DHT22;62824;52.994;-3.936;2023-04-24T12:27:46;10.90;45.30
74384;DHT22;62824;52.994;-3.936;2023-04-24T12:30:17;11.10;43.40
74384;DHT22;62824;52.994;-3.936;2023-04-24T12:32:48;11.00;38.60
74384;DHT22;62824;52.994;-3.936;2023-04-24T12:35:19;11.00;40.30
74384;DHT22;62824;52.994;-3.936;2023-04-24T12:37:46;10.90;43.40
74384;DHT22;62824;52.994;-3.936;2023-04-24T12:40:13;11.00;42.60
74384;DHT22;62824;52.994;-3.936;2023-04-24T12:45:10;10.70;44.40
74384;DHT22;62824;52.994;-3.936;2023-04-24T12:47:38;11.00;44.30
74384;DHT22;62824;52.994;-3.936;2023-04-24T12:50:05;11.20;39.10
74384;DHT22;62824;52.994;-3.936;2023-04-24T12:52:31;11.40;38.70
74384;DHT22;62824;52.994;-3.936;2023-04-24T12:54:58;11.00;40.10
74384;DHT22;62824;52.994;-3.936;2023-04-24T12:57:26;10.90;38.20
74384;DHT22;62824;52.994;-3.936;2023-04-24T12:59:56;11.40;37.50
74384;DHT22;62824;52.994;-3.936;2023-04-24T13:02:23;11.30;35.30
74384;DHT22;62824;52.994;-3.936;2023-04-24T13:04:49;11.40;35.50
74384;DHT22;62824;52.994;-3.936;2023-04-24T13:07:16;11.40;34.70
74384;DHT22;62824;52.994;-3.936;2023-04-24T13:09:43;11.30;34.50
74384;DHT22;62824;52.994;-3.936;2023-04-24T13:12:10;11.40;35.50
74384;DHT22;62824;52.994;-3.936;2023-04-24T13:14:36;11.50;36.00
74384;DHT22;62824;52.994;-3.936;2023-04-24T13:17:02;11.50;36.10
74384;DHT22;62824;52.994;-3.936;2023-04-24T13:19:28;11.70;36.70
74384;DHT22;62824;52.994;-3.936;2023-04-24T13:21:55;11.50;34.20
74384;DHT22;62824;52.994;-3.936;2023-04-24T13:24:25;11.20;32.60
74384;DHT22;62824;52.994;-3.936;2023-04-24T13:26:52;11.40;31.90
74384;DHT22;62824;52.994;-3.936;2023-04-24T13:29:18;11.30;31.60
74384;DHT22;62824;52.994;-3.936;2023-04-24T13:31:44;11.40;32.80
74384;DHT22;62824;52.994;-3.936;2023-04-24T13:34:10;11.50;32.30
74384;DHT22;62824;52.994;-3.936;2023-04-24T13:36:36;11.50;34.30
74384;DHT22;62824;52.994;-3.936;2023-04-24T13:39:02;11.20;33.50
74384;DHT22;62824;52.994;-3.936;2023-04-24T13:41:30;11.10;35.60
74384;DHT22;62824;52.994;-3.936;2023-04-24T13:43:56;11.00;34.00
74384;DHT22;62824;52.994;-3.936;2023-04-24T13:46:22;10.90;30.80
74384;DHT22;62824;52.994;-3.936;2023-04-24T13:48:47;11.00;31.90
74384;DHT22;62824;52.994;-3.936;2023-04-24T13:51:13;11.40;32.00
74384;DHT22;62824;52.994;-3.936;2023-04-24T13:53:39;11.80;28.90
74384;DHT22;62824;52.994;-3.936;2023-04-24T13:56:05;12.40;28.90
74384;DHT22;62824;52.994;-3.936;2023-04-24T13:58:31;12.60;28.80
74384;DHT22;62824;52.994;-3.936;2023-04-24T14:01:02;12.50;26.20
74384;DHT22;62824;52.994;-3.936;2023-04-24T14:03:28;12.90;27.10
74384;DHT22;62824;52.994;-3.936;2023-04-24T14:05:54;12.60;26.80
74384;DHT22;62824;52.994;-3.936;2023-04-24T14:08:20;12.70;27.60
74384;DHT22;62824;52.994;-3.936;2023-04-24T14:10:46;12.80;26.40
74384;DHT22;62824;52.994;-3.936;2023-04-24T14:13:12;12.60;25.00
74384;DHT22;62824;52.994;-3.936;2023-04-24T14:15:38;13.10;23.80
74384;DHT22;62824;52.994;-3.936;2023-04-24T14:18:04;13.60;23.90
74384;DHT22;62824;52.994;-3.936;2023-04-24T14:20:30;14.20;22.60
74384;DHT22;62824;52.994;-3.936;2023-04-24T14:22:56;14.10;22.90
74384;DHT22;62824;52.994;-3.936;2023-04-24T14:25:24;13.70;23.60
74384;DHT22;62824;52.994;-3.936;2023-04-24T14:27:50;13.70;24.20
74384;DHT22;62824;52.994;-3.936;2023-04-24T14:30:17;13.50;24.90
74384;DHT22;62824;52.994;-3.936;2023-04-24T14:32:44;13.50;23.30
74384;DHT22;62824;52.994;-3.936;2023-04-24T14:35:10;13.50;22.80
74384;DHT22;62824;52.994;-3.936;2023-04-24T14:37:36;13.30;22.60
74384;DHT22;62824;52.994;-3.936;2023-04-24T14:40:03;13.20;22.60
74384;DHT22;62824;52.994;-3.936;2023-04-24T14:42:30;13.30;23.30
74384;DHT22;62824;52.994;-3.936;2023-04-24T14:44:56;13.60;22.80
74384;DHT22;62824;52.994;-3.936;2023-04-24T14:47:22;14.10;22.00
74384;DHT22;62824;52.994;-3.936;2023-04-24T14:49:48;13.60;22.80
74384;DHT22;62824;52.994;-3.936;2023-04-24T14:52:14;13.60;21.70
74384;DHT22;62824;52.994;-3.936;2023-04-24T14:54:40;13.30;20.00
74384;DHT22;62824;52.994;-3.936;2023-04-24T14:57:06;13.40;20.90
74384;DHT22;62824;52.994;-3.936;2023-04-24T14:59:31;13.10;22.00
74384;DHT22;62824;52.994;-3.936;2023-04-24T15:01:57;13.10;22.50
74384;DHT22;62824;52.994;-3.936;2023-04-24T15:04:24;12.70;24.10
74384;DHT22;62824;52.994;-3.936;2023-04-24T15:06:55;12.70;24.30
74384;DHT22;62824;52.994;-3.936;2023-04-24T15:09:22;12.70;21.40
74384;DHT22;62824;52.994;-3.936;2023-04-24T15:11:48;12.70;23.10
74384;DHT22;62824;52.994;-3.936;2023-04-24T15:14:15;12.40;24.90
74384;DHT22;62824;52.994;-3.936;2023-04-24T15:16:41;12.10;24.10
74384;DHT22;62824;52.994;-3.936;2023-04-24T15:19:07;12.60;23.00
74384;DHT22;62824;52.994;-3.936;2023-04-24T15:21:33;12.40;23.10
74384;DHT22;62824;52.994;-3.936;2023-04-24T15:23:59;12.30;24.20
74384;DHT22;62824;52.994;-3.936;2023-04-24T15:26:25;12.30;24.30
74384;DHT22;62824;52.994;-3.936;2023-04-24T15:28:51;12.30;24.70
74384;DHT22;62824;52.994;-3.936;2023-04-24T15:31:18;11.90;22.30
74384;DHT22;62824;52.994;-3.936;2023-04-24T15:33:44;12.10;22.90
74384;DHT22;62824;52.994;-3.936;2023-04-24T15:36:10;11.90;22.70
74384;DHT22;62824;52.994;-3.936;2023-04-24T15:38:37;12.10;22.40
74384;DHT22;62824;52.994;-3.936;2023-04-24T15:41:02;12.00;23.40
74384;DHT22;62824;52.994;-3.936;2023-04-24T15:43:28;12.10;23.90
74384;DHT22;62824;52.994;-3.936;2023-04-24T15:45:57;12.20;25.00
74384;DHT22;62824;52.994;-3.936;2023-04-24T15:48:22;12.20;25.50